Time;durP1;ratioP1;P1;durP2;ratioP2;P2;SDS_P1;SDS_P2;PMS_P1;PMS_P2;Temp;Humidity;BMP_temperature;BMP_pressure;BME280_temperature;BME280_humidity;BME280_pressure;Samples;Min_cycle;Max_cycle;Signal;HPM_P1;HPM_P2
2022/12/08 04:17:00;;;;;;;51.92;22.05;;;;;;;2.50;100.00;100758.88;5076825;28;20419;-87
2022/12/08 04:19:28;;;;;;;55.30;22.17;;;;;;;2.45;100.00;100761.22;5042838;28;20044;-87
2022/12/08 04:21:57;;;;;;;49.97;21.30;;;;;;;2.41;100.00;100759.88;5077717;28;20383;-87
2022/12/08 04:24:35;;;;;;;54.47;22.08;;;;;;;2.44;100.00;100765.75;5060189;28;20033;-87
2022/12/08 04:30:32;;;;;;;44.28;19.58;;;;;;;2.42;100.00;100749.00;5077103;28;20039;-86
2022/12/08 04:36:37;;;;;;;36.28;17.05;;;;;;;2.48;100.00;100754.69;5077164;28;20082;-87
2022/12/08 04:42:48;;;;;;;35.42;14.50;;;;;;;2.34;100.00;100735.59;5077147;28;20034;-87
2022/12/08 04:49:02;;;;;;;31.67;12.27;;;;;;;2.33;100.00;100714.34;5015611;28;20076;-87
2022/12/08 04:54:57;;;;;;;21.58;9.13;;;;;;;2.33;100.00;100733.91;4976015;28;20550;-87
2022/12/08 05:30:30;;;;;;;9.70;4.75;;;;;;;2.17;100.00;100729.38;4973144;28;20501;-87
2022/12/08 05:43:46;;;;;;;11.75;4.10;;;;;;;2.16;100.00;100730.38;5013563;28;20482;-87
2022/12/08 05:49:37;;;;;;;5.30;2.08;;;;;;;2.12;100.00;100723.66;5055575;28;20044;-87
2022/12/08 05:52:05;;;;;;;11.85;1.90;;;;;;;2.08;100.00;100722.28;5020870;28;20382;-87
2022/12/08 05:57:56;;;;;;;4.60;2.08;;;;;;;2.05;100.00;100715.47;5055392;28;20068;-87
2022/12/08 06:04:10;;;;;;;6.72;2.10;;;;;;;2.08;100.00;100715.13;5055335;28;20395;-87
2022/12/08 06:10:00;;;;;;;5.25;2.05;;;;;;;2.02;100.00;100715.78;5055361;28;20114;-87
2022/12/08 06:12:36;;;;;;;8.93;2.00;;;;;;;2.02;100.00;100709.56;5021963;28;20163;-87
2022/12/08 06:15:04;;;;;;;5.60;2.22;;;;;;;1.96;100.00;100695.00;5038761;28;20112;-87
2022/12/08 06:17:32;;;;;;;5.65;2.33;;;;;;;1.97;100.00;100690.50;5037217;28;20036;-87
2022/12/08 06:20:01;;;;;;;6.88;2.22;;;;;;;2.00;100.00;100695.53;5056116;28;20114;-87
2022/12/08 06:22:38;;;;;;;5.68;2.50;;;;;;;1.99;100.00;100693.84;5037467;28;20572;-87
2022/12/08 06:28:19;;;;;;;7.05;3.15;;;;;;;2.01;100.00;100692.69;5054622;28;20098;-86
2022/12/08 06:30:44;;;;;;;7.20;2.77;;;;;;;2.07;100.00;100700.06;5040841;28;20142;-86
2022/12/08 06:33:17;;;;;;;7.50;2.73;;;;;;;2.06;100.00;100698.38;5056713;28;20067;-87
2022/12/08 06:35:43;;;;;;;9.00;3.00;;;;;;;2.10;100.00;100697.06;5057605;28;20047;-89
2022/12/08 06:38:08;;;;;;;5.60;2.90;;;;;;;2.18;100.00;100703.44;5057631;28;20464;-88
2022/12/08 06:40:36;;;;;;;6.73;3.13;;;;;;;2.25;100.00;100701.78;5056619;28;20036;-88
2022/12/08 06:43:01;;;;;;;6.50;3.00;;;;;;;2.25;100.00;100707.13;5074410;28;20024;-88
2022/12/08 06:45:27;;;;;;;5.50;2.90;;;;;;;2.20;100.00;100699.59;5074848;28;20032;-88
2022/12/08 06:47:52;;;;;;;7.00;2.72;;;;;;;2.20;100.00;100704.09;5057067;28;20082;-85
2022/12/08 06:50:17;;;;;;;6.27;2.70;;;;;;;2.19;100.00;100703.25;5056775;28;20381;-86
2022/12/08 06:52:44;;;;;;;9.97;3.30;;;;;;;2.23;100.00;100706.44;5056218;28;20418;-86
2022/12/08 06:55:10;;;;;;;8.25;3.03;;;;;;;2.18;100.00;100695.41;5056331;28;20024;-87
2022/12/08 06:57:36;;;;;;;7.43;3.35;;;;;;;2.20;100.00;100693.38;5073974;28;20033;-86
2022/12/08 07:00:04;;;;;;;7.72;3.65;;;;;;;2.22;100.00;100689.56;5039792;28;20028;-85
2022/12/08 07:02:30;;;;;;;6.82;3.50;;;;;;;2.22;100.00;100689.56;5074352;28;20082;-86
2022/12/08 07:04:55;;;;;;;8.77;3.33;;;;;;;2.30;100.00;100699.44;5073900;28;20028;-86
2022/12/08 07:07:43;;;;;;;8.30;3.47;;;;;;;2.27;100.00;100695.25;5073671;28;20029;-88
2022/12/08 07:10:09;;;;;;;8.30;3.55;;;;;;;2.24;100.00;100689.38;5056840;28;20570;-87
2022/12/08 07:12:54;;;;;;;14.30;6.87;;;;;;;2.32;100.00;100712.66;5055755;28;20040;-88
2022/12/08 07:15:20;;;;;;;20.27;7.57;;;;;;;2.26;100.00;100700.78;5074180;28;20025;-87
2022/12/08 07:17:55;;;;;;;23.70;9.55;;;;;;;2.28;100.00;100712.16;5073438;28;20037;-88
2022/12/08 07:20:23;;;;;;;27.83;12.13;;;;;;;2.23;100.00;100690.38;5055308;28;20361;-88
2022/12/08 07:22:54;;;;;;;23.92;12.30;;;;;;;2.26;100.00;100698.09;5055241;28;20028;-88
2022/12/08 07:25:23;;;;;;;38.38;16.90;;;;;;;2.30;100.00;100709.31;5073856;28;20031;-87
2022/12/08 07:28:00;;;;;;;;;;;;;;;;;;;;;
2022/12/08 07:30:29;;;;;;;39.05;18.40;;;;;;;2.24;100.00;100705.44;5074235;28;20047;-88
2022/12/08 07:32:54;;;;;;;50.53;20.55;;;;;;;2.21;100.00;100703.94;5055311;28;20115;-87
2022/12/08 07:35:23;;;;;;;48.40;22.50;;;;;;;2.21;100.00;100703.94;5056541;28;20071;-87
2022/12/08 07:37:58;;;;;;;51.53;22.10;;;;;;;2.25;100.00;100707.97;5055824;28;20123;-87
2022/12/08 07:40:23;;;;;;;46.70;21.63;;;;;;;2.23;100.00;100703.75;5040741;28;20060;-88
2022/12/08 07:42:53;;;;;;;49.07;22.83;;;;;;;2.24;100.00;100700.94;5055330;28;20440;-87
2022/12/08 07:45:21;;;;;;;48.00;23.23;;;;;;;2.19;100.00;100695.22;5055501;28;20028;-87
2022/12/08 07:47:51;;;;;;;50.80;22.42;;;;;;;2.27;100.00;100708.66;5055711;28;20056;-88
2022/12/08 07:50:20;;;;;;;50.00;22.00;;;;;;;2.22;100.00;100697.59;5038983;28;20036;-88
2022/12/08 07:52:47;;;;;;;49.58;21.67;;;;;;;2.21;100.00;100690.53;5054926;28;20055;-88
2022/12/08 07:55:13;;;;;;;47.33;20.60;;;;;;;2.23;100.00;100701.09;5055155;28;20547;-88
2022/12/08 07:57:44;;;;;;;55.15;23.83;;;;;;;2.19;100.00;100705.94;5055054;28;20036;-88
2022/12/08 08:00:10;;;;;;;48.37;21.83;;;;;;;2.28;100.00;100715.66;5055003;28;20040;-88
2022/12/08 08:02:35;;;;;;;45.85;21.15;;;;;;;2.22;100.00;100723.53;5038615;28;20150;-89
2022/12/08 08:05:04;;;;;;;53.72;23.10;;;;;;;2.13;100.00;100713.78;5055381;28;20115;-89
2022/12/08 08:07:48;;;;;;;;;;;;;;;;;;;;;
2022/12/08 08:10:14;;;;;;;38.13;19.10;;;;;;;2.06;100.00;100709.06;5074656;28;20037;-88
2022/12/08 08:12:49;;;;;;;37.30;16.92;;;;;;;2.05;100.00;100717.28;5055318;28;20035;-88
2022/12/08 08:15:22;;;;;;;32.95;16.63;;;;;;;2.02;100.00;100714.94;5055531;28;20058;-89
2022/12/08 08:17:50;;;;;;;29.55;14.18;;;;;;;1.97;100.00;100704.72;5055418;28;20036;-88
2022/12/08 08:20:16;;;;;;;32.70;15.45;;;;;;;1.97;100.00;100702.03;5055528;28;20464;-88
2022/12/08 08:22:56;;;;;;;28.30;13.85;;;;;;;2.05;100.00;100711.91;5055255;28;20483;-88
2022/12/08 08:25:26;;;;;;;32.88;15.82;;;;;;;2.03;100.00;100703.22;5055995;28;20036;-88
2022/12/08 08:27:57;;;;;;;27.10;14.65;;;;;;;2.08;100.00;100708.91;5073009;28;20028;-88
2022/12/08 08:30:23;;;;;;;28.60;14.20;;;;;;;2.08;100.00;100706.25;5038977;28;20060;-88
2022/12/08 08:32:51;;;;;;;28.07;12.80;;;;;;;2.06;100.00;100706.41;5055144;28;20373;-88
2022/12/08 08:35:19;;;;;;;25.55;12.70;;;;;;;2.09;100.00;100707.91;5055409;28;20064;-88
2022/12/08 08:37:55;;;;;;;32.30;14.82;;;;;;;2.13;100.00;100708.41;5073897;28;20032;-88
2022/12/08 08:40:20;;;;;;;29.33;14.38;;;;;;;2.16;100.00;100700.09;5073094;28;20025;-87
2022/12/08 08:43:27;;;;;;;26.37;13.87;;;;;;;2.18;100.00;100706.09;5055736;28;20032;-88
2022/12/08 08:45:41;;;;;;;20.60;10.30;;;;;;;2.13;100.00;100701.25;5056346;28;20032;-88
2022/12/08 08:48:06;;;;;;;22.17;12.23;;;;;;;2.19;100.00;100703.25;5055052;28;20123;-88
2022/12/08 08:50:34;;;;;;;30.50;13.90;;;;;;;2.23;100.00;100701.09;5072900;28;20078;-88
2022/12/08 08:53:26;;;;;;;32.65;16.58;;;;;;;2.28;100.00;100701.44;5038069;28;20043;-89
2022/12/08 08:55:55;;;;;;;40.83;18.17;;;;;;;2.27;100.00;100703.28;5045101;28;20041;-88
2022/12/08 08:58:30;;;;;;;47.90;20.05;;;;;;;2.22;100.00;100696.75;5076912;28;20116;-89
2022/12/08 09:00:56;;;;;;;46.42;20.00;;;;;;;2.26;100.00;100698.09;5058278;28;20067;-89
2022/12/08 09:03:30;;;;;;;49.50;21.60;;;;;;;2.24;100.00;100700.09;5058934;28;20079;-89
2022/12/08 09:05:58;;;;;;;49.40;19.13;;;;;;;2.23;100.00;100699.25;5042714;28;20036;-89
2022/12/08 09:08:31;;;;;;;40.47;19.30;;;;;;;2.25;100.00;100699.94;5058356;28;20025;-88
2022/12/08 09:11:01;;;;;;;42.00;18.80;;;;;;;2.32;100.00;100701.94;5076615;28;20075;-89
2022/12/08 09:13:35;;;;;;;45.17;19.67;;;;;;;2.31;100.00;100695.75;5058938;28;20032;-89
2022/12/08 09:16:04;;;;;;;43.38;18.92;;;;;;;2.33;100.00;100687.56;5059021;28;20128;-89
2022/12/08 09:18:50;;;;;;;;;;;;;;;;;;;;;
2022/12/08 09:21:25;;;;;;;43.92;20.88;;;;;;;2.36;100.00;100690.75;5077556;28;20364;-89
2022/12/08 09:24:09;;;;;;;;;;;;;;;;;;;;;
2022/12/08 09:26:35;;;;;;;44.17;18.90;;;;;;;2.46;100.00;100693.25;5060566;28;20036;-89
2022/12/08 09:29:02;;;;;;;42.40;17.93;;;;;;;2.41;100.00;100683.06;5058008;28;20116;-89
2022/12/08 09:31:31;;;;;;;34.58;15.85;;;;;;;2.45;100.00;100692.44;5075748;28;20061;-89
2022/12/08 09:34:01;;;;;;;33.65;14.23;;;;;;;2.46;100.00;100694.09;5058189;28;20044;-89
2022/12/08 09:36:44;;;;;;;27.77;13.70;;;;;;;2.42;100.00;100689.22;5042205;28;20032;-89
2022/12/08 09:39:14;;;;;;;29.95;12.63;;;;;;;2.38;100.00;100686.06;5058500;28;20034;-89
2022/12/08 09:41:51;;;;;;;31.50;14.00;;;;;;;2.44;100.00;100695.28;5042783;28;20127;-89
2022/12/08 09:44:49;;;;;;;33.25;16.38;;;;;;;2.41;100.00;100699.13;5058367;28;20031;-89
2022/12/08 09:47:38;;;;;;;43.47;18.60;;;;;;;2.49;100.00;100695.59;5058368;28;20023;-89
2022/12/08 09:50:14;;;;;;;49.70;22.00;;;;;;;2.58;100.00;100701.81;5050185;28;20036;-88
2022/12/08 09:53:01;;;;;;;56.97;25.77;;;;;;;2.53;100.00;100699.63;5076168;28;20032;-88
2022/12/08 09:55:48;;;;;;;63.40;27.37;;;;;;;2.50;100.00;100699.97;5058140;28;20063;-89
2022/12/08 09:58:50;;;;;;;64.65;26.35;;;;;;;2.48;100.00;100698.44;5058794;28;20032;-88
2022/12/08 10:01:28;;;;;;;67.20;28.38;;;;;;;2.43;100.00;100685.56;5023125;28;20035;-88
2022/12/08 10:03:56;;;;;;;66.05;26.80;;;;;;;2.45;100.00;100683.53;5060543;28;20032;-89
2022/12/08 10:06:37;;;;;;;70.82;29.17;;;;;;;2.40;100.00;100692.06;5057219;28;20068;-89
2022/12/08 10:09:11;;;;;;;71.33;26.70;;;;;;;2.34;100.00;100689.25;5058130;28;20094;-89
2022/12/08 10:11:47;;;;;;;65.70;26.30;;;;;;;2.32;100.00;100691.22;5057763;28;20033;-88
2022/12/08 10:14:48;;;;;;;67.63;27.80;;;;;;;2.28;100.00;100690.72;5057675;28;20024;-89
2022/12/08 10:17:24;;;;;;;61.08;24.52;;;;;;;2.15;100.00;100680.50;5041278;28;20127;-89
2022/12/08 10:20:09;;;;;;;;;;;;;;;;;;;;;
2022/12/08 10:22:39;;;;;;;58.40;24.63;;;;;;;2.18;100.00;100676.66;5075606;28;20039;-89
2022/12/08 10:25:19;;;;;;;66.07;26.45;;;;;;;2.22;100.00;100670.81;5075661;28;20037;-88
2022/12/08 10:27:51;;;;;;;66.47;25.85;;;;;;;2.21;100.00;100660.25;5057929;28;20098;-89
2022/12/08 10:30:40;;;;;;;;;;;;;;;;;;;;;
2022/12/08 10:33:17;;;;;;;61.28;24.98;;;;;;;2.26;100.00;100661.44;5060271;28;20058;-89
2022/12/08 10:35:48;;;;;;;60.50;23.27;;;;;;;2.31;100.00;100668.97;5056873;28;20033;-89
2022/12/08 10:38:31;;;;;;;55.08;22.98;;;;;;;2.25;100.00;100662.44;5056530;28;20052;-88
2022/12/08 10:41:11;;;;;;;48.53;20.73;;;;;;;2.20;100.00;100658.59;5056677;28;20028;-89
2022/12/08 10:43:56;;;;;;;47.00;19.67;;;;;;;2.17;100.00;100656.25;5056824;28;20124;-89
2022/12/08 10:46:33;;;;;;;48.08;20.63;;;;;;;2.17;100.00;100659.78;5057071;28;20127;-89
2022/12/08 10:49:04;;;;;;;38.93;17.33;;;;;;;2.22;100.00;100669.97;5056706;28;20478;-89
2022/12/08 10:51:35;;;;;;;44.63;18.50;;;;;;;2.18;100.00;100677.50;5056419;28;20097;-89
2022/12/08 10:54:10;;;;;;;38.72;17.20;;;;;;;2.10;100.00;100667.59;5057144;28;20033;-89
2022/12/08 10:56:42;;;;;;;47.67;18.10;;;;;;;2.10;100.00;100666.78;5057282;28;20032;-89
2022/12/08 10:59:22;;;;;;;38.33;17.85;;;;;;;2.17;100.00;100680.34;5056050;28;20031;-89
2022/12/08 11:02:00;;;;;;;;;;;;;;;;;;;;;
2022/12/08 11:04:47;;;;;;;38.63;16.92;;;;;;;2.06;100.00;100668.94;5075413;28;20043;-89
2022/12/08 11:08:02;;;;;;;39.67;17.70;;;;;;;1.95;100.00;100666.59;5057187;28;20376;-90
2022/12/08 11:10:43;;;;;;;41.03;18.08;;;;;;;1.87;100.00;100655.84;5056025;28;20036;-89
2022/12/08 11:13:37;;;;;;;48.13;19.10;;;;;;;1.95;100.00;100657.69;5056369;28;20182;-89
2022/12/08 11:16:06;;;;;;;39.97;17.83;;;;;;;1.84;100.00;100654.34;5056077;28;20036;-88
2022/12/08 11:19:08;;;;;;;35.50;15.77;;;;;;;1.77;100.00;100642.59;5055380;28;20055;-88
2022/12/08 11:21:36;;;;;;;35.83;17.25;;;;;;;1.74;100.00;100645.59;5018941;28;20041;-88
2022/12/08 11:24:44;;;;;;;39.92;17.48;;;;;;;1.81;100.00;100638.59;5055915;28;20162;-88
2022/12/08 11:27:13;;;;;;;50.10;20.30;;;;;;;1.96;100.00;100643.31;5056632;28;20038;-88
2022/12/08 11:29:41;;;;;;;51.13;21.60;;;;;;;2.06;100.00;100644.03;5055842;28;20067;-88
2022/12/08 11:32:15;;;;;;;50.35;21.67;;;;;;;2.08;100.00;100636.66;5036241;28;20060;-87
2022/12/08 11:34:54;;;;;;;54.40;21.15;;;;;;;2.10;100.00;100637.34;5019679;28;20043;-88
2022/12/08 11:37:38;;;;;;;52.78;20.63;;;;;;;2.06;100.00;100622.59;5036206;28;20116;-87
2022/12/08 11:40:27;;;;;;;55.85;22.60;;;;;;;2.10;100.00;100637.34;5036564;28;20029;-88
2022/12/08 11:43:40;;;;;;;57.13;23.47;;;;;;;2.15;100.00;100629.63;5029396;28;20041;-87
2022/12/08 11:46:23;;;;;;;55.38;23.02;;;;;;;2.17;100.00;100626.78;5044227;28;20029;-87
2022/12/08 11:49:10;;;;;;;55.45;22.73;;;;;;;2.16;100.00;100627.81;5036106;28;20376;-87
2022/12/08 11:52:03;;;;;;;46.25;20.23;;;;;;;2.18;100.00;100629.31;5036598;28;20068;-87
2022/12/08 11:54:31;;;;;;;38.17;18.67;;;;;;;2.10;100.00;100616.75;5036014;28;20017;-87
2022/12/08 11:57:11;;;;;;;;;;;;;;;;;;;;;
2022/12/08 11:59:53;;;;;;;35.63;16.25;;;;;;;2.06;100.00;100612.72;5054168;28;20037;-87
2022/12/08 12:02:25;;;;;;;39.17;18.20;;;;;;;2.15;100.00;100615.44;5037481;28;20029;-87
2022/12/08 12:05:04;;;;;;;39.80;17.77;;;;;;;2.20;100.00;100618.44;5035898;28;20033;-87
2022/12/08 12:07:55;;;;;;;38.72;17.00;;;;;;;2.19;100.00;100619.44;5035551;28;20021;-87
2022/12/08 12:13:51;;;;;;;28.33;12.95;;;;;;;2.17;100.00;100608.91;4991469;28;20638;-88
2022/12/08 12:16:50;;;;;;;30.75;14.80;;;;;;;2.23;100.00;100608.25;5033295;28;20040;-88
2022/12/08 12:19:32;;;;;;;25.25;13.20;;;;;;;2.19;100.00;100603.38;5035807;28;20564;-87
2022/12/08 12:22:07;;;;;;;26.23;13.10;;;;;;;2.20;100.00;100607.72;5035917;28;20032;-88
2022/12/08 12:24:40;;;;;;;25.97;12.60;;;;;;;2.25;100.00;100602.72;5053550;28;20492;-88
2022/12/08 12:27:28;;;;;;;26.48;12.50;;;;;;;2.28;100.00;100602.38;5035674;28;20029;-87
2022/12/08 12:29:59;;;;;;;25.98;13.65;;;;;;;2.31;100.00;100602.03;5036954;28;20484;-87
2022/12/08 12:32:50;;;;;;;26.02;12.63;;;;;;;2.35;100.00;100598.03;5055368;28;20056;-87
2022/12/08 12:35:26;;;;;;;24.45;11.70;;;;;;;2.35;100.00;100589.16;5059417;28;20033;-87
2022/12/08 12:37:57;;;;;;;24.50;12.70;;;;;;;2.36;100.00;100593.50;5059918;28;20048;-87
2022/12/08 12:40:30;;;;;;;21.20;11.90;;;;;;;2.40;100.00;100587.66;5059078;28;20115;-88
2022/12/08 12:42:55;;;;;;;20.73;10.77;;;;;;;2.53;100.00;100592.50;5059333;28;20594;-87
2022/12/08 12:45:25;;;;;;;18.07;9.93;;;;;;;2.56;100.00;100585.97;5058616;28;20127;-87
2022/12/08 12:47:56;;;;;;;17.70;9.90;;;;;;;2.58;100.00;100583.94;5059461;28;20024;-88
2022/12/08 12:50:54;;;;;;;18.73;10.63;;;;;;;2.64;100.00;100575.22;5076787;28;20029;-88
2022/12/08 12:53:28;;;;;;;18.40;9.23;;;;;;;2.72;100.00;100588.63;5076706;28;20028;-88
2022/12/08 12:56:03;;;;;;;15.95;9.07;;;;;;;2.62;100.00;100577.25;5059204;28;20107;-88
2022/12/08 12:58:39;;;;;;;18.08;8.93;;;;;;;2.65;100.00;100576.91;5058752;28;20058;-88
2022/12/08 13:01:10;;;;;;;15.07;8.63;;;;;;;2.63;100.00;100581.63;5076774;28;20368;-88
2022/12/08 13:03:42;;;;;;;17.65;9.05;;;;;;;2.67;100.00;100571.38;5058767;28;20033;-88
2022/12/08 13:06:12;;;;;;;15.07;8.27;;;;;;;2.65;100.00;100574.22;5077368;28;20089;-89
2022/12/08 13:08:52;;;;;;;14.13;7.97;;;;;;;2.61;100.00;100571.06;5058721;28;20032;-88
2022/12/08 13:11:51;;;;;;;;;;;;;;;;;;;;;
2022/12/08 13:14:48;;;;;;;14.23;7.70;;;;;;;2.83;100.00;100568.66;5063761;28;20040;-88
2022/12/08 13:17:39;;;;;;;12.90;7.32;;;;;;;2.87;100.00;100561.13;5058709;28;20379;-88
2022/12/08 13:20:45;;;;;;;12.27;7.40;;;;;;;2.89;100.00;100559.09;5076428;28;20060;-88
2022/12/08 13:23:46;;;;;;;13.00;7.20;;;;;;;2.96;100.00;100570.81;5040162;28;20396;-89
2022/12/08 13:26:20;;;;;;;11.70;6.80;;;;;;;2.96;100.00;100576.16;5031517;28;20044;-88
2022/12/08 13:28:59;;;;;;;12.35;6.38;;;;;;;3.03;100.00;100570.94;5077020;28;20368;-88
2022/12/08 13:31:44;;;;;;;;;;;;;;;;;;;;;
2022/12/08 13:34:46;;;;;;;;;;;;;;;;;;;;;
2022/12/08 13:37:21;;;;;;;10.45;6.82;;;;;;;3.10;100.00;100571.94;5075926;28;20046;-88
2022/12/08 13:46:48;;;;;;;8.82;5.07;;;;;;;2.86;100.00;100540.69;5033845;28;20109;-88
2022/12/08 13:52:15;;;;;;;10.73;4.78;;;;;;;2.87;100.00;100526.28;5034052;28;20565;-88
2022/12/08 13:54:44;;;;;;;6.38;4.70;;;;;;;2.88;100.00;100522.59;5016899;28;20044;-88
2022/12/08 13:57:40;;;;;;;9.43;5.25;;;;;;;2.92;100.00;100534.63;5016926;28;20564;-88
2022/12/08 14:00:18;;;;;;;8.43;4.90;;;;;;;2.89;100.00;100534.97;5016726;28;20037;-88
2022/12/08 14:03:19;;;;;;;8.05;5.20;;;;;;;2.87;100.00;100543.19;5016816;28;20042;-88
2022/12/08 14:05:48;;;;;;;10.40;5.32;;;;;;;2.86;100.00;100533.47;5017518;28;20087;-88
2022/12/08 14:08:34;;;;;;;10.02;5.45;;;;;;;2.90;100.00;100529.44;5016507;28;20066;-88
2022/12/08 14:11:32;;;;;;;8.77;5.40;;;;;;;2.93;100.00;100531.78;5016180;28;20117;-88
2022/12/08 14:14:04;;;;;;;8.10;5.75;;;;;;;2.98;100.00;100539.31;5031798;28;20043;-87
2022/12/08 14:16:38;;;;;;;8.80;5.38;;;;;;;3.06;100.00;100550.00;5075220;28;20095;-88
2022/12/08 14:19:28;;;;;;;7.28;4.45;;;;;;;2.99;100.00;100544.47;5056936;28;20047;-87
2022/12/08 14:22:08;;;;;;;7.22;4.55;;;;;;;3.02;100.00;100546.00;5042553;28;20041;-88
2022/12/08 14:24:36;;;;;;;7.88;4.07;;;;;;;3.01;100.00;100546.16;5057101;28;20460;-87
2022/12/08 14:27:04;;;;;;;7.18;3.72;;;;;;;2.95;100.00;100553.03;5056904;28;20045;-87
2022/12/08 14:29:46;;;;;;;6.10;2.90;;;;;;;2.70;100.00;100545.09;5056779;28;20029;-87
2022/12/08 14:32:18;;;;;;;3.50;2.50;;;;;;;2.60;100.00;100556.00;5075033;28;20048;-88
2022/12/08 14:34:54;;;;;;;;;;;;;;;;;;;;;
2022/12/08 14:37:27;;;;;;;2.90;1.83;;;;;;;2.43;100.00;100539.09;5075289;28;20031;-88
2022/12/08 14:40:08;;;;;;;;;;;;;;;;;;;;;
2022/12/08 14:42:53;;;;;;;3.15;2.15;;;;;;;2.31;100.00;100532.44;5075564;28;20039;-88
2022/12/08 14:45:32;;;;;;;4.47;2.20;;;;;;;2.30;100.00;100532.59;5056745;28;20040;-88
2022/12/08 14:48:24;;;;;;;3.65;2.08;;;;;;;2.23;100.00;100529.75;5056711;28;20056;-88
2022/12/08 14:50:58;;;;;;;3.10;2.00;;;;;;;2.22;100.00;100542.31;5074810;28;20058;-88
2022/12/08 14:53:39;;;;;;;4.18;2.28;;;;;;;2.24;100.00;100531.44;5055667;28;20036;-88
2022/12/08 14:56:47;;;;;;;6.93;2.40;;;;;;;2.21;100.00;100535.28;5074562;28;20052;-88
2022/12/08 14:59:29;;;;;;;3.53;2.30;;;;;;;2.20;100.00;100543.47;5046104;28;20048;-87
2022/12/08 15:02:23;;;;;;;4.90;2.60;;;;;;;2.22;100.00;100553.03;5057131;28;20031;-87
2022/12/08 15:04:57;;;;;;;4.72;2.58;;;;;;;2.24;100.00;100551.03;5057264;28;20028;-87
2022/12/08 15:07:28;;;;;;;3.95;2.80;;;;;;;2.16;100.00;100550.19;5056655;28;20456;-88
2022/12/08 15:10:18;;;;;;;5.95;2.53;;;;;;;2.06;100.00;100553.84;5056925;28;20382;-88
2022/12/08 15:13:19;;;;;;;4.07;2.70;;;;;;;2.07;100.00;100558.22;5056676;28;20456;-88
2022/12/08 15:16:22;;;;;;;;;;;;;;;;;;;;;
2022/12/08 15:19:10;;;;;;;5.95;3.50;;;;;;;1.88;100.00;100556.69;5074538;28;20038;-89
2022/12/08 15:21:37;;;;;;;5.35;3.33;;;;;;;1.77;100.00;100545.47;5055902;28;20095;-86
2022/12/08 15:24:13;;;;;;;5.45;2.88;;;;;;;1.74;100.00;100560.88;5074346;28;20051;-87
2022/12/08 15:26:48;;;;;;;4.68;2.88;;;;;;;1.67;100.00;100553.63;5056211;28;20056;-93
2022/12/08 15:29:26;;;;;;;7.20;3.58;;;;;;;1.65;100.00;100575.19;5039643;28;20032;-87
2022/12/08 15:31:59;;;;;;;5.43;3.78;;;;;;;1.52;100.00;100569.47;5056290;28;20052;-87
2022/12/08 15:34:27;;;;;;;5.63;3.80;;;;;;;1.51;100.00;100576.69;5073362;28;20495;-87
2022/12/08 15:36:54;;;;;;;6.30;3.60;;;;;;;1.47;100.00;100575.31;5055672;28;20032;-87
2022/12/08 15:39:38;;;;;;;6.13;4.00;;;;;;;1.48;100.00;100576.19;5073782;28;20029;-88
2022/12/08 15:42:11;;;;;;;6.53;3.88;;;;;;;1.40;100.00;100558.25;5056119;28;20060;-87
2022/12/08 15:51:21;;;;;;;7.47;3.40;;;;;;;1.31;100.00;100576.09;4986024;28;20045;-87
2022/12/08 15:53:50;;;;;;;6.32;3.03;;;;;;;1.26;100.00;100565.06;5073347;28;20472;-87
2022/12/08 15:56:18;;;;;;;4.15;2.97;;;;;;;1.28;100.00;100570.25;5073554;28;20035;-88
2022/12/08 15:58:51;;;;;;;6.68;3.70;;;;;;;1.22;100.00;100567.22;5056107;28;20041;-87
2022/12/08 16:01:32;;;;;;;7.20;3.60;;;;;;;1.24;100.00;100569.75;5056420;28;20032;-87
2022/12/08 16:04:00;;;;;;;5.57;3.33;;;;;;;1.16;100.00;100561.69;5056486;28;20028;-87
2022/12/08 16:06:28;;;;;;;6.47;3.22;;;;;;;1.14;100.00;100559.19;5062009;28;20054;-88
2022/12/08 16:09:02;;;;;;;7.53;2.90;;;;;;;1.14;100.00;100564.53;5061882;28;20549;-86
2022/12/08 16:14:13;;;;;;;5.57;3.05;;;;;;;1.20;100.00;100571.06;5080650;28;20113;-88
2022/12/08 16:16:44;;;;;;;5.63;3.15;;;;;;;1.13;100.00;100564.69;5045770;28;20554;-88
2022/12/08 16:19:13;;;;;;;6.85;3.72;;;;;;;1.14;100.00;100559.19;5061909;28;20025;-89
2022/12/08 16:21:41;;;;;;;8.43;4.30;;;;;;;1.17;100.00;100566.88;5079527;28;20027;-87
2022/12/08 16:24:07;;;;;;;9.52;4.20;;;;;;;1.13;100.00;100554.81;5046125;28;20471;-87
2022/12/08 16:26:36;;;;;;;9.85;4.30;;;;;;;1.13;100.00;100551.31;5061534;28;20063;-87
2022/12/08 16:29:03;;;;;;;8.38;5.20;;;;;;;1.15;100.00;100546.66;5061056;28;20467;-88
2022/12/08 16:31:36;;;;;;;10.88;5.50;;;;;;;1.13;100.00;100552.16;5061764;28;20582;-88
2022/12/08 16:34:04;;;;;;;8.15;4.70;;;;;;;1.11;100.00;100543.47;5061715;28;20083;-87
2022/12/08 16:36:40;;;;;;;8.30;4.82;;;;;;;1.10;100.00;100536.44;5061903;28;20024;-88
2022/12/08 16:39:26;;;;;;;8.10;4.40;;;;;;;1.02;100.00;100531.09;5045555;28;20032;-88
2022/12/08 16:44:46;;;;;;;17.02;8.60;;;;;;;0.92;100.00;100544.56;5080257;28;20463;-87
2022/12/08 16:47:14;;;;;;;10.48;6.22;;;;;;;0.86;100.00;100545.19;5062083;28;20495;-87
2022/12/08 16:49:45;;;;;;;11.32;5.53;;;;;;;0.83;100.00;100541.00;5079703;28;20055;-87
2022/12/08 16:52:18;;;;;;;11.05;5.47;;;;;;;0.74;100.00;100536.63;5062222;28;20032;-88
2022/12/08 16:54:43;;;;;;;8.65;5.63;;;;;;;0.73;100.00;100539.47;5062308;28;20411;-86
2022/12/08 16:57:11;;;;;;;8.83;5.10;;;;;;;0.69;100.00;100536.25;5079476;28;20024;-87
2022/12/08 16:59:44;;;;;;;13.90;6.35;;;;;;;0.59;100.00;100531.03;5044967;28;20282;-88
2022/12/08 17:02:09;;;;;;;9.80;5.65;;;;;;;0.56;100.00;100536.69;5061646;28;20027;-88
2022/12/08 17:04:37;;;;;;;9.23;5.50;;;;;;;0.54;100.00;100530.66;5061307;28;20430;-88
2022/12/08 17:07:08;;;;;;;10.93;6.53;;;;;;;0.57;100.00;100534.84;5045724;28;20421;-88
2022/12/08 17:09:46;;;;;;;10.23;6.18;;;;;;;0.64;100.00;100530.56;5061544;28;20028;-87
2022/12/08 17:12:17;;;;;;;11.38;6.57;;;;;;;0.71;100.00;100534.28;5045863;28;20135;-87
2022/12/08 17:14:51;;;;;;;14.45;7.68;;;;;;;0.74;100.00;100531.28;5062086;28;20040;-88
2022/12/08 17:17:27;;;;;;;14.87;7.57;;;;;;;0.84;100.00;100540.00;5058301;28;20081;-87
2022/12/08 17:20:05;;;;;;;14.93;7.65;;;;;;;0.87;100.00;100533.50;5058466;28;20071;-87
2022/12/08 17:22:32;;;;;;;17.17;8.45;;;;;;;0.87;100.00;100531.69;5058421;28;20456;-86
2022/12/08 17:25:01;;;;;;;16.25;8.77;;;;;;;0.83;100.00;100532.16;5057519;28;20076;-86
2022/12/08 17:27:35;;;;;;;15.95;8.38;;;;;;;0.87;100.00;100546.84;5058124;28;20024;-86
2022/12/08 17:30:04;;;;;;;16.00;8.77;;;;;;;0.82;100.00;100538.50;5058472;28;20032;-86
2022/12/08 17:32:30;;;;;;;15.13;8.02;;;;;;;0.81;100.00;100537.66;5057741;28;20110;-86
2022/12/08 17:34:55;;;;;;;17.20;8.73;;;;;;;0.80;100.00;100533.31;5058133;28;20123;-87
2022/12/08 17:37:23;;;;;;;14.40;8.63;;;;;;;0.85;100.00;100540.84;5058125;28;20039;-87
2022/12/08 17:39:51;;;;;;;13.97;8.47;;;;;;;0.83;100.00;100540.19;5041485;28;20028;-86
2022/12/08 17:42:17;;;;;;;16.75;9.63;;;;;;;0.83;100.00;100537.50;5075467;28;20056;-86
2022/12/08 17:44:42;;;;;;;20.13;10.23;;;;;;;0.84;100.00;100540.00;5057774;28;20062;-86
2022/12/08 17:47:08;;;;;;;19.70;10.70;;;;;;;0.84;100.00;100531.16;5076104;28;20274;-86
2022/12/08 17:49:34;;;;;;;22.50;11.45;;;;;;;0.87;100.00;100538.84;5058496;28;20028;-87
2022/12/08 17:52:03;;;;;;;22.03;11.43;;;;;;;0.93;100.00;100540.91;5075477;28;20031;-86
2022/12/08 17:54:35;;;;;;;18.92;11.25;;;;;;;0.91;100.00;100534.03;5057703;28;20020;-90
2022/12/08 17:57:10;;;;;;;21.77;11.77;;;;;;;0.95;100.00;100549.56;5076007;28;20028;-89
2022/12/08 18:02:37;;;;;;;;;;;;;;;;;;;;;
2022/12/08 18:05:14;;;;;;;20.88;11.73;;;;;;;0.91;100.00;100542.03;5076026;28;20063;-89
2022/12/08 18:07:42;;;;;;;24.83;12.52;;;;;;;0.90;100.00;100533.19;5041263;28;20132;-89
2022/12/08 18:13:14;;;;;;;25.95;13.52;;;;;;;0.96;100.00;100529.03;5061007;28;20040;-89
2022/12/08 18:15:48;;;;;;;22.33;11.60;;;;;;;0.95;100.00;100530.88;5074926;28;20048;-89
2022/12/08 18:18:16;;;;;;;27.08;13.30;;;;;;;0.94;100.00;100518.50;5057604;28;20032;-89